Time,TemperatureF,DewpointF,PressureIn,WindDirection,WindDirectionDegrees,WindSpeedMPH,WindSpeedGustMPH,Humidity,HourlyPrecipIn,Conditions,Clouds,dailyrainin,SolarRadiationWatts/m^2,SoftwareType,DateUTC
2013-01-08 00:12:00,43.0,41.0,-100.00,ENE,71,1.0,3.0,94,0.00,,,0.00,0.000000,,2013-01-08 06:12:00,
2013-01-08 00:22:00,43.0,41.0,-100.00,ENE,71,1.0,3.0,94,0.00,,,0.00,0.000000,,2013-01-08 06:22:00,
2013-01-08 00:33:00,43.0,41.0,-100.00,ENE,71,1.0,3.0,94,0.00,,,0.00,0.000000,,2013-01-08 06:33:00,
2013-01-08 00:42:00,43.0,41.0,-100.00,ENE,71,1.0,3.0,94,0.00,,,0.00,0.000000,,2013-01-08 06:42:00,
2013-01-08 00:51:00,47.0,41.0,-100.00,East,98,2.0,5.0,79,0.00,,,0.00,0.000000,,2013-01-08 06:51:00,
2013-01-08 01:12:00,47.0,41.0,-100.00,East,98,2.0,5.0,79,0.00,,,0.00,0.000000,,2013-01-08 07:12:00,
2013-01-08 01:22:00,47.0,41.0,-100.00,East,98,2.0,5.0,79,0.00,,,0.00,0.000000,,2013-01-08 07:22:00,
2013-01-08 01:32:00,47.0,41.0,-100.00,East,98,2.0,5.0,79,0.00,,,0.00,0.000000,,2013-01-08 07:32:00,
2013-01-08 01:42:00,47.0,41.0,-100.00,East,98,2.0,5.0,79,0.00,,,0.00,0.000000,,2013-01-08 07:42:00,
2013-01-08 01:51:00,47.0,42.0,-100.00,North,6,1.0,3.0,82,0.00,,,0.00,0.000000,,2013-01-08 07:51:00,
2013-01-08 02:22:00,47.0,42.0,-100.00,North,6,1.0,3.0,82,0.00,,,0.00,0.000000,,2013-01-08 08:22:00,
2013-01-08 02:32:00,47.0,42.0,-100.00,North,6,1.0,3.0,82,0.00,,,0.00,0.000000,,2013-01-08 08:32:00,
2013-01-08 02:42:00,47.0,42.0,-100.00,North,6,1.0,3.0,82,0.00,,,0.00,0.000000,,2013-01-08 08:42:00,
2013-01-08 02:51:00,48.0,42.0,-100.00,ENE,68,1.0,4.0,79,0.00,,,0.00,0.000000,,2013-01-08 08:51:00,
2013-01-08 03:12:00,48.0,42.0,-100.00,ENE,68,1.0,4.0,79,0.00,,,0.00,0.000000,,2013-01-08 09:12:00,
2013-01-08 03:22:00,48.0,42.0,-100.00,ENE,68,1.0,4.0,79,0.00,,,0.00,0.000000,,2013-01-08 09:22:00,
2013-01-08 03:32:00,48.0,42.0,-100.00,ENE,68,1.0,4.0,79,0.00,,,0.00,0.000000,,2013-01-08 09:32:00,
2013-01-08 03:42:00,48.0,42.0,-100.00,ENE,68,1.0,4.0,79,0.00,,,0.00,0.000000,,2013-01-08 09:42:00,
2013-01-08 03:51:00,48.0,41.0,-100.00,ENE,66,2.0,5.0,78,0.00,,,0.00,0.000000,,2013-01-08 09:51:00,
2013-01-08 04:12:00,48.0,41.0,-100.00,ENE,66,2.0,5.0,78,0.00,,,0.00,0.000000,,2013-01-08 10:12:00,
2013-01-08 04:22:00,48.0,41.0,-100.00,ENE,66,2.0,5.0,78,0.00,,,0.00,0.000000,,2013-01-08 10:22:00,
2013-01-08 04:32:00,48.0,41.0,-100.00,ENE,66,2.0,5.0,78,0.00,,,0.00,0.000000,,2013-01-08 10:32:00,
2013-01-08 04:42:00,48.0,41.0,-100.00,ENE,66,2.0,5.0,78,0.00,,,0.00,0.000000,,2013-01-08 10:42:00,
2013-01-08 04:51:00,47.0,42.0,-100.00,NNE,18,2.0,4.0,84,0.00,,,0.00,0.000000,,2013-01-08 10:51:00,
2013-01-08 05:12:00,47.0,42.0,-100.00,NNE,18,2.0,4.0,84,0.00,,,0.00,0.000000,,2013-01-08 11:12:00,
2013-01-08 05:22:00,47.0,42.0,-100.00,NNE,18,2.0,4.0,84,0.00,,,0.00,0.000000,,2013-01-08 11:22:00,
2013-01-08 05:33:00,47.0,42.0,-100.00,NNE,18,2.0,4.0,84,0.00,,,0.00,0.000000,,2013-01-08 11:33:00,
2013-01-08 05:42:00,47.0,42.0,-100.00,NNE,18,2.0,4.0,84,0.00,,,0.00,0.000000,,2013-01-08 11:42:00,
2013-01-08 05:51:00,47.0,43.0,-100.00,NNW,346,2.0,4.0,87,0.00,,,0.00,0.000000,,2013-01-08 11:51:00,
2013-01-08 06:12:00,47.0,43.0,-100.00,NNW,346,2.0,4.0,87,0.00,,,0.00,0.000000,,2013-01-08 12:12:00,
2013-01-08 06:22:00,47.0,43.0,-100.00,NNW,346,2.0,4.0,87,0.00,,,0.00,0.000000,,2013-01-08 12:22:00,
2013-01-08 06:33:00,47.0,43.0,-100.00,NNW,346,2.0,4.0,87,0.00,,,0.00,0.000000,,2013-01-08 12:33:00,
2013-01-08 06:42:00,47.0,43.0,-100.00,NNW,346,2.0,4.0,87,0.00,,,0.00,0.000000,,2013-01-08 12:42:00,
2013-01-08 06:51:00,51.0,45.0,-100.00,ENE,75,2.0,6.0,81,0.00,,,0.00,0.000000,,2013-01-08 12:51:00,
2013-01-08 07:12:00,51.0,45.0,-100.00,ENE,75,2.0,6.0,81,0.00,,,0.00,0.000000,,2013-01-08 13:12:00,
2013-01-08 07:22:00,51.0,45.0,-100.00,ENE,75,2.0,6.0,81,0.00,,,0.00,0.000000,,2013-01-08 13:22:00,
2013-01-08 07:33:00,51.0,45.0,-100.00,ENE,75,2.0,6.0,81,0.00,,,0.00,0.000000,,2013-01-08 13:33:00,
2013-01-08 07:43:00,51.0,45.0,-100.00,ENE,75,2.0,6.0,81,0.00,,,0.00,0.000000,,2013-01-08 13:43:00,
2013-01-08 07:51:00,52.0,46.0,-100.00,ENE,68,2.0,5.0,80,0.00,,,0.00,19.000000,,2013-01-08 13:51:00,
2013-01-08 08:12:00,52.0,46.0,-100.00,ENE,68,2.0,5.0,80,0.00,,,0.00,19.000000,,2013-01-08 14:12:00,
2013-01-08 08:23:00,52.0,46.0,-100.00,ENE,68,2.0,5.0,80,0.00,,,0.00,19.000000,,2013-01-08 14:23:00,
2013-01-08 08:33:00,52.0,46.0,-100.00,ENE,68,2.0,5.0,80,0.00,,,0.00,19.000000,,2013-01-08 14:33:00,
2013-01-08 08:43:00,52.0,46.0,-100.00,ENE,68,2.0,5.0,80,0.00,,,0.00,19.000000,,2013-01-08 14:43:00,
2013-01-08 08:51:00,53.0,47.0,-100.00,ENE,78,3.0,7.0,80,0.00,,,0.00,40.000000,,2013-01-08 14:51:00,
2013-01-08 09:12:00,53.0,47.0,-100.00,ENE,78,3.0,7.0,80,0.00,,,0.00,40.000000,,2013-01-08 15:12:00,
2013-01-08 09:22:00,53.0,47.0,-100.00,ENE,78,3.0,7.0,80,0.00,,,0.00,40.000000,,2013-01-08 15:22:00,
2013-01-08 09:33:00,53.0,47.0,-100.00,ENE,78,3.0,7.0,80,0.00,,,0.00,40.000000,,2013-01-08 15:33:00,
2013-01-08 09:43:00,53.0,47.0,-100.00,ENE,78,3.0,7.0,80,0.00,,,0.00,40.000000,,2013-01-08 15:43:00,
2013-01-08 09:51:00,58.0,51.0,-100.00,East,101,3.0,9.0,77,0.00,,,0.00,148.000000,,2013-01-08 15:51:00,
2013-01-08 10:12:00,58.0,51.0,-100.00,East,101,3.0,9.0,77,0.00,,,0.00,148.000000,,2013-01-08 16:12:00,
2013-01-08 10:22:00,58.0,51.0,-100.00,East,101,3.0,9.0,77,0.00,,,0.00,148.000000,,2013-01-08 16:22:00,
2013-01-08 10:34:00,58.0,51.0,-100.00,East,101,3.0,9.0,77,0.00,,,0.00,148.000000,,2013-01-08 16:34:00,
2013-01-08 10:42:00,58.0,51.0,-100.00,East,101,3.0,9.0,77,0.00,,,0.00,148.000000,,2013-01-08 16:42:00,
2013-01-08 10:51:00,61.0,54.0,-100.00,ESE,105,5.0,12.0,79,0.00,,,0.00,228.000000,,2013-01-08 16:51:00,
2013-01-08 11:13:00,61.0,54.0,-100.00,ESE,105,5.0,12.0,79,0.00,,,0.00,228.000000,,2013-01-08 17:13:00,
2013-01-08 11:23:00,61.0,54.0,-100.00,ESE,105,5.0,12.0,79,0.00,,,0.00,228.000000,,2013-01-08 17:23:00,
2013-01-08 11:33:00,61.0,54.0,-100.00,ESE,105,5.0,12.0,79,0.00,,,0.00,228.000000,,2013-01-08 17:33:00,
2013-01-08 11:43:00,61.0,54.0,-100.00,ESE,105,5.0,12.0,79,0.00,,,0.00,228.000000,,2013-01-08 17:43:00,
2013-01-08 11:51:00,62.0,56.0,-100.00,SE,125,5.0,13.0,82,0.00,,,0.00,167.000000,,2013-01-08 17:51:00,
2013-01-08 12:23:00,62.0,56.0,-100.00,SE,125,5.0,13.0,82,0.00,,,0.00,167.000000,,2013-01-08 18:23:00,
2013-01-08 12:33:00,62.0,56.0,-100.00,SE,125,5.0,13.0,82,0.00,,,0.00,167.000000,,2013-01-08 18:33:00,
2013-01-08 12:43:00,62.0,56.0,-100.00,SE,125,5.0,13.0,82,0.00,,,0.00,167.000000,,2013-01-08 18:43:00,
2013-01-08 12:51:00,64.0,58.0,-100.00,ESE,119,5.0,9.0,80,0.00,,,0.00,145.000000,,2013-01-08 18:51:00,
2013-01-08 13:12:00,64.0,58.0,-100.00,ESE,119,5.0,9.0,80,0.00,,,0.00,145.000000,,2013-01-08 19:12:00,
2013-01-08 13:23:00,64.0,58.0,-100.00,ESE,119,5.0,9.0,80,0.00,,,0.00,145.000000,,2013-01-08 19:23:00,
2013-01-08 13:32:00,64.0,58.0,-100.00,ESE,119,5.0,9.0,80,0.00,,,0.00,145.000000,,2013-01-08 19:32:00,
2013-01-08 13:42:00,64.0,58.0,-100.00,ESE,119,5.0,9.0,80,0.00,,,0.00,145.000000,,2013-01-08 19:42:00,
2013-01-08 13:51:00,64.0,58.0,-100.00,SE,126,7.0,11.0,81,0.00,,,0.00,124.000000,,2013-01-08 19:51:00,
2013-01-08 14:23:00,64.0,58.0,-100.00,SE,126,7.0,11.0,81,0.00,,,0.00,124.000000,,2013-01-08 20:23:00,
2013-01-08 14:33:00,64.0,58.0,-100.00,SE,126,7.0,11.0,81,0.00,,,0.00,124.000000,,2013-01-08 20:33:00,
2013-01-08 14:43:00,64.0,58.0,-100.00,SE,126,7.0,11.0,81,0.00,,,0.00,124.000000,,2013-01-08 20:43:00,
2013-01-08 14:51:00,64.0,58.0,-100.00,ESE,111,6.0,17.0,82,0.00,,,0.00,197.000000,,2013-01-08 20:51:00,
2013-01-08 15:13:00,64.0,58.0,-100.00,ESE,111,6.0,17.0,82,0.00,,,0.00,197.000000,,2013-01-08 21:13:00,
2013-01-08 15:23:00,64.0,58.0,-100.00,ESE,111,6.0,17.0,82,0.00,,,0.00,197.000000,,2013-01-08 21:23:00,
2013-01-08 15:33:00,64.0,58.0,-100.00,ESE,111,6.0,17.0,82,0.00,,,0.00,197.000000,,2013-01-08 21:33:00,
2013-01-08 15:43:00,64.0,58.0,-100.00,ESE,111,6.0,17.0,82,0.00,,,0.00,197.000000,,2013-01-08 21:43:00,
2013-01-08 15:51:00,64.0,59.0,-100.00,ESE,103,5.0,11.0,83,0.00,,,0.00,81.000000,,2013-01-08 21:51:00,
2013-01-08 16:12:00,64.0,59.0,-100.00,ESE,103,5.0,11.0,83,0.00,,,0.00,81.000000,,2013-01-08 22:12:00,
2013-01-08 16:23:00,64.0,59.0,-100.00,ESE,103,5.0,11.0,83,0.00,,,0.00,81.000000,,2013-01-08 22:23:00,
2013-01-08 16:33:00,64.0,59.0,-100.00,ESE,103,5.0,11.0,83,0.00,,,0.00,81.000000,,2013-01-08 22:33:00,
2013-01-08 16:43:00,64.0,59.0,-100.00,ESE,103,5.0,11.0,83,0.00,,,0.00,81.000000,,2013-01-08 22:43:00,
2013-01-08 16:51:00,64.0,58.0,-100.00,SE,126,4.0,10.0,82,0.00,,,0.00,46.000000,,2013-01-08 22:51:00,
2013-01-08 17:22:00,64.0,58.0,-100.00,SE,126,4.0,10.0,82,0.00,,,0.00,46.000000,,2013-01-08 23:22:00,
2013-01-08 17:33:00,64.0,58.0,-100.00,SE,126,4.0,10.0,82,0.00,,,0.00,46.000000,,2013-01-08 23:33:00,
2013-01-08 17:43:00,64.0,58.0,-100.00,SE,126,4.0,10.0,82,0.00,,,0.00,46.000000,,2013-01-08 23:43:00,
2013-01-08 17:51:00,62.0,57.0,-100.00,ESE,103,6.0,13.0,85,0.00,,,0.00,1.000000,,2013-01-08 23:51:00,
2013-01-08 18:12:00,62.0,57.0,-100.00,ESE,103,6.0,13.0,85,0.00,,,0.00,1.000000,,2013-01-09 00:12:00,
2013-01-08 18:22:00,62.0,57.0,-100.00,ESE,103,6.0,13.0,85,0.00,,,0.00,1.000000,,2013-01-09 00:22:00,
2013-01-08 18:33:00,62.0,57.0,-100.00,ESE,103,6.0,13.0,85,0.00,,,0.00,1.000000,,2013-01-09 00:33:00,
2013-01-08 18:42:00,62.0,57.0,-100.00,ESE,103,6.0,13.0,85,0.00,,,0.00,1.000000,,2013-01-09 00:42:00,
2013-01-08 18:51:00,60.0,56.0,-100.00,East,99,6.0,11.0,88,0.00,,,0.00,0.000000,,2013-01-09 00:51:00,
2013-01-08 19:22:00,60.0,56.0,-100.00,East,99,6.0,11.0,88,0.00,,,0.00,0.000000,,2013-01-09 01:22:00,
2013-01-08 19:32:00,60.0,56.0,-100.00,East,99,6.0,11.0,88,0.00,,,0.00,0.000000,,2013-01-09 01:32:00,
2013-01-08 19:42:00,60.0,56.0,-100.00,East,99,6.0,11.0,88,0.00,,,0.00,0.000000,,2013-01-09 01:42:00,
2013-01-08 19:51:00,60.0,56.0,-100.00,ESE,104,5.0,10.0,87,0.00,,,0.00,0.000000,,2013-01-09 01:51:00,
2013-01-08 20:22:00,60.0,56.0,-100.00,ESE,104,5.0,10.0,87,0.00,,,0.00,0.000000,,2013-01-09 02:22:00,
2013-01-08 20:33:00,60.0,56.0,-100.00,ESE,104,5.0,10.0,87,0.00,,,0.00,0.000000,,2013-01-09 02:33:00,
2013-01-08 20:43:00,60.0,56.0,-100.00,ESE,104,5.0,10.0,87,0.00,,,0.00,0.000000,,2013-01-09 02:43:00,
2013-01-08 20:51:00,61.0,57.0,-100.00,ESE,103,4.0,11.0,88,0.00,,,0.00,0.000000,,2013-01-09 02:51:00,
2013-01-08 21:12:00,61.0,57.0,-100.00,ESE,103,4.0,11.0,88,0.00,,,0.00,0.000000,,2013-01-09 03:12:00,
2013-01-08 21:22:00,61.0,57.0,-100.00,ESE,103,4.0,11.0,88,0.00,,,0.00,0.000000,,2013-01-09 03:22:00,
2013-01-08 21:33:00,61.0,57.0,-100.00,ESE,103,4.0,11.0,88,0.00,,,0.00,0.000000,,2013-01-09 03:33:00,
2013-01-08 21:43:00,61.0,57.0,-100.00,ESE,103,4.0,11.0,88,0.00,,,0.00,0.000000,,2013-01-09 03:43:00,
2013-01-08 21:51:00,62.0,58.0,-100.00,ESE,111,7.0,15.0,88,0.00,,,0.00,0.000000,,2013-01-09 03:51:00,
2013-01-08 22:12:00,62.0,58.0,-100.00,ESE,111,7.0,15.0,88,0.00,,,0.00,0.000000,,2013-01-09 04:12:00,
2013-01-08 22:22:00,62.0,58.0,-100.00,ESE,111,7.0,15.0,88,0.00,,,0.00,0.000000,,2013-01-09 04:22:00,
2013-01-08 22:32:00,62.0,58.0,-100.00,ESE,111,7.0,15.0,88,0.00,,,0.00,0.000000,,2013-01-09 04:32:00,
2013-01-08 22:42:00,62.0,58.0,-100.00,ESE,111,7.0,15.0,88,0.00,,,0.00,0.000000,,2013-01-09 04:42:00,
2013-01-08 22:51:00,63.0,59.0,-100.00,ESE,103,8.0,15.0,87,0.00,,,0.00,0.000000,,2013-01-09 04:51:00,
2013-01-08 23:12:00,63.0,59.0,-100.00,ESE,103,8.0,15.0,87,0.00,,,0.00,0.000000,,2013-01-09 05:12:00,
2013-01-08 23:22:00,63.0,59.0,-100.00,ESE,103,8.0,15.0,87,0.00,,,0.00,0.000000,,2013-01-09 05:22:00,
2013-01-08 23:33:00,63.0,59.0,-100.00,ESE,103,8.0,15.0,87,0.00,,,0.00,0.000000,,2013-01-09 05:33:00,
2013-01-08 23:42:00,63.0,59.0,-100.00,ESE,103,8.0,15.0,87,0.00,,,0.00,0.000000,,2013-01-09 05:42:00,
2013-01-08 23:51:00,63.0,59.0,-100.00,ESE,112,6.0,16.0,86,0.00,,,0.00,0.000000,,2013-01-09 05:51:00,